createdAt,value
2019-02-09T00:01:56.821Z,96125.00
2019-02-09T00:04:27.140Z,96128.02
2019-02-09T00:06:57.599Z,96125.00
2019-02-09T00:09:27.304Z,96113.82
2019-02-09T00:11:59.138Z,96118.52
2019-02-09T00:14:29.596Z,96118.52
2019-02-09T00:16:59.613Z,96116.66
2019-02-09T00:19:29.394Z,96106.22
2019-02-09T00:22:01.459Z,96110.41
2019-02-09T00:24:31.162Z,96112.05
2019-02-09T00:27:02.128Z,96112.05
2019-02-09T00:29:31.854Z,96113.02
2019-02-09T00:32:02.196Z,96113.02
2019-02-09T00:34:31.937Z,96113.61
2019-02-09T00:37:04.710Z,96099.95
2019-02-09T00:39:35.009Z,96104.92
2019-02-09T00:42:04.609Z,96104.92
2019-02-09T00:44:34.224Z,96100.95
2019-02-09T00:47:03.730Z,96100.95
2019-02-09T00:49:33.304Z,96107.03
2019-02-09T00:52:04.986Z,96092.36
2019-02-09T00:54:35.083Z,96092.02
2019-02-09T00:57:06.274Z,96090.95
2019-02-09T00:59:36.290Z,96090.95
2019-02-09T01:02:06.131Z,96090.61
2019-02-09T01:04:36.088Z,96085.11
2019-02-09T01:07:05.756Z,96088.79
2019-02-09T01:09:35.888Z,96091.53
2019-02-09T01:12:06.054Z,96087.19
2019-02-09T01:14:36.123Z,96077.31
2019-02-09T01:17:08.122Z,96077.31
2019-02-09T01:19:38.031Z,96082.31
2019-02-09T01:22:07.546Z,96073.33
2019-02-09T01:24:37.968Z,96066.64
2019-02-09T01:27:07.922Z,96057.95
2019-02-09T01:29:37.934Z,96057.95
2019-02-09T01:32:08.259Z,96079.16
2019-02-09T01:34:38.078Z,96054.40
2019-02-09T01:37:10.236Z,96050.77
2019-02-09T01:39:39.928Z,96050.77
2019-02-09T01:42:10.278Z,96048.96
2019-02-09T01:44:40.089Z,96047.36
2019-02-09T01:47:09.957Z,96038.81
2019-02-09T01:49:40.088Z,96032.38
2019-02-09T01:52:09.618Z,96041.67
2019-02-09T01:54:40.131Z,96038.27
2019-02-09T01:57:11.558Z,96046.72
2019-02-09T01:59:41.230Z,96046.72
2019-02-09T02:02:11.117Z,96052.52
2019-02-09T02:04:40.732Z,96048.19
2019-02-09T02:07:12.009Z,96060.64
2019-02-09T02:09:42.184Z,96050.72
2019-02-09T02:12:12.253Z,96050.72
2019-02-09T02:14:41.767Z,96067.69
2019-02-09T02:17:11.497Z,96062.95
2019-02-09T02:19:41.382Z,96065.16
2019-02-09T02:22:11.049Z,96065.16
2019-02-09T02:31:05.172Z,96042.31
2019-02-09T02:33:35.326Z,96047.13
2019-02-09T02:36:05.196Z,96047.13
2019-02-09T02:38:35.357Z,96034.64
2019-02-09T02:41:05.235Z,96037.56
2019-02-09T02:43:35.018Z,96035.88
2019-02-09T02:46:05.138Z,96043.16
2019-02-09T02:48:36.921Z,96033.44
2019-02-09T02:51:08.226Z,96031.27
2019-02-09T02:53:38.361Z,96042.03
2019-02-09T02:56:08.073Z,96042.03
2019-02-09T02:58:40.642Z,96027.14
2019-02-09T03:01:10.717Z,96027.34
2019-02-09T03:03:41.095Z,96027.34
2019-02-09T03:06:10.892Z,96016.19
2019-02-09T03:08:43.051Z,96033.98
2019-02-09T03:11:13.030Z,96040.57
2019-02-09T03:13:42.749Z,96040.57
2019-02-09T03:16:13.195Z,96037.08
2019-02-09T03:18:42.979Z,96038.89
2019-02-09T03:21:12.991Z,96038.89
2019-02-09T03:23:42.905Z,96044.33
2019-02-09T03:26:12.686Z,96044.97
2019-02-09T03:28:42.366Z,96046.23
2019-02-09T03:31:12.459Z,96055.66
2019-02-09T03:33:42.370Z,96055.66
2019-02-09T03:36:12.044Z,96065.02
2019-02-09T03:38:41.870Z,96059.70
2019-02-09T03:41:11.677Z,96059.70
2019-02-09T03:43:44.094Z,96063.57
2019-02-09T03:46:13.896Z,96067.42
2019-02-09T03:48:43.361Z,96070.16
2019-02-09T03:51:13.832Z,96070.56
2019-02-09T03:53:43.356Z,96070.56
2019-02-09T03:56:13.019Z,96082.21
2019-02-09T03:58:42.825Z,96082.34
2019-02-09T04:01:14.670Z,96082.34
2019-02-09T04:03:47.047Z,96081.73
2019-02-09T04:06:19.645Z,96079.99
2019-02-09T04:08:49.147Z,96082.35
2019-02-09T04:11:18.490Z,96080.55
2019-02-09T04:13:48.327Z,96080.55
2019-02-09T04:16:17.938Z,96081.30
2019-02-09T04:18:47.927Z,96081.33
2019-02-09T04:21:20.320Z,96081.33
2019-02-09T04:23:49.872Z,96089.79
2019-02-09T04:26:21.582Z,96084.88
2019-02-09T04:28:51.095Z,96092.94
2019-02-09T04:31:21.619Z,96082.58
2019-02-09T04:33:51.526Z,96084.88
2019-02-09T04:36:21.441Z,96085.64
2019-02-09T04:38:53.140Z,96085.64
2019-02-09T04:41:24.391Z,96089.84
2019-02-09T04:43:53.858Z,96089.84
2019-02-09T04:46:23.377Z,96107.55
2019-02-09T04:48:55.556Z,96098.80
2019-02-09T04:51:24.919Z,96095.66
2019-02-09T04:53:55.094Z,96095.66
2019-02-09T04:56:26.319Z,96081.88
2019-02-09T04:58:56.159Z,96081.88
2019-02-09T05:01:27.369Z,96115.53
2019-02-09T05:03:58.279Z,96134.97
2019-02-09T05:06:28.179Z,96134.97
2019-02-09T05:08:57.707Z,96142.43
2019-02-09T05:11:27.013Z,96154.89
2019-02-09T05:13:56.506Z,96150.25
2019-02-09T05:16:29.077Z,96155.57
2019-02-09T05:18:59.648Z,96155.57
2019-02-09T05:21:29.346Z,96158.23
2019-02-09T05:23:59.172Z,96152.58
2019-02-09T05:26:29.157Z,96162.70
2019-02-09T05:28:58.638Z,96162.70
2019-02-09T05:31:29.771Z,96165.02
2019-02-09T05:33:59.378Z,96173.81
2019-02-09T05:36:28.880Z,96170.67
2019-02-09T05:38:58.429Z,96169.70
2019-02-09T05:41:28.087Z,96177.80
2019-02-09T05:43:58.623Z,96177.80
2019-02-09T05:46:28.610Z,96192.17
2019-02-09T05:48:58.555Z,96190.63
2019-02-09T05:51:28.079Z,96195.32
2019-02-09T05:53:59.818Z,96195.32
2019-02-09T05:56:29.388Z,96196.03
2019-02-09T05:59:00.968Z,96203.39
2019-02-09T06:01:32.353Z,96204.77
2019-02-09T06:04:02.954Z,96213.37
2019-02-09T06:06:32.495Z,96213.37
2019-02-09T06:09:03.592Z,96204.00
2019-02-09T06:11:35.147Z,96209.12
2019-02-09T06:14:05.058Z,96217.31
2019-02-09T06:16:37.024Z,96232.44
2019-02-09T06:19:06.526Z,96230.38
2019-02-09T06:21:36.133Z,96237.00
2019-02-09T06:24:07.191Z,96238.47
2019-02-09T06:26:36.671Z,96236.67
2019-02-09T06:29:09.144Z,96247.31
2019-02-09T06:31:42.670Z,96247.31
2019-02-09T06:34:12.448Z,96247.31
2019-02-09T06:36:44.376Z,96249.68
2019-02-09T06:39:16.130Z,96249.68
2019-02-09T06:41:48.379Z,96258.01
2019-02-09T06:44:17.805Z,96265.91
2019-02-09T06:46:47.241Z,96265.91
2019-02-09T06:49:17.024Z,96251.16
2019-02-09T06:51:46.601Z,96259.82
2019-02-09T06:54:17.051Z,96263.39
2019-02-09T06:56:48.435Z,96262.84
2019-02-09T06:59:18.352Z,96254.86
2019-02-09T07:01:52.463Z,96254.86
2019-02-09T07:04:21.967Z,96257.94
2019-02-09T07:06:51.551Z,96258.39
2019-02-09T07:09:21.216Z,96255.22
2019-02-09T07:11:51.188Z,96253.59
2019-02-09T07:14:20.595Z,96267.18
2019-02-09T07:16:50.092Z,96267.18
2019-02-09T07:19:21.664Z,96258.85
2019-02-09T07:21:52.315Z,96261.57
2019-02-09T07:24:23.561Z,96272.55
2019-02-09T07:26:54.661Z,96272.04
2019-02-09T07:29:24.275Z,96272.04
2019-02-09T07:31:56.590Z,96285.68
2019-02-09T07:34:26.917Z,96290.30
2019-02-09T07:36:56.515Z,96309.29
2019-02-09T07:39:28.547Z,96325.21
2019-02-09T07:41:58.626Z,96325.21
2019-02-09T07:44:31.061Z,96325.27
2019-02-09T07:47:01.099Z,96332.41
2019-02-09T07:49:31.000Z,96332.41
2019-02-09T07:52:00.358Z,96334.22
2019-02-09T07:54:30.159Z,96334.22
2019-02-09T07:57:02.324Z,96347.26
2019-02-09T07:59:32.547Z,96345.15
2019-02-09T08:02:04.711Z,96360.81
2019-02-09T08:04:33.172Z,96361.40
2019-02-09T08:07:02.946Z,96339.02
2019-02-09T08:09:32.336Z,96351.02
2019-02-09T08:12:02.347Z,96351.02
2019-02-09T08:14:36.736Z,96363.57
2019-02-09T08:17:09.683Z,96372.27
2019-02-09T08:19:40.008Z,96363.80
2019-02-09T08:22:09.692Z,96386.51
2019-02-09T08:24:39.086Z,96388.77
2019-02-09T08:27:12.299Z,96388.77
2019-02-09T08:29:42.001Z,96392.50
2019-02-09T08:32:13.083Z,96399.70
2019-02-09T08:34:43.115Z,96406.22
2019-02-09T08:37:12.613Z,96397.98
2019-02-09T08:39:44.936Z,96405.78
2019-02-09T08:42:20.331Z,96405.55
2019-02-09T08:44:49.832Z,96405.55
2019-02-09T08:47:22.591Z,96402.41
2019-02-09T08:49:52.120Z,96415.38
2019-02-09T08:52:24.485Z,96415.38
2019-02-09T08:54:59.078Z,96404.93
2019-02-09T08:57:28.594Z,96422.45
2019-02-09T08:59:58.295Z,96428.27
2019-02-09T09:02:27.937Z,96420.59
2019-02-09T09:04:57.688Z,96420.59
2019-02-09T09:07:27.597Z,96425.03
2019-02-09T09:09:57.376Z,96417.31
2019-02-09T09:12:26.700Z,96417.31
2019-02-09T09:14:56.204Z,96420.97
2019-02-09T09:17:26.127Z,96426.38
2019-02-09T09:19:55.791Z,96444.10
2019-02-09T09:22:25.102Z,96427.16
2019-02-09T09:24:54.910Z,96443.93
2019-02-09T09:27:24.519Z,96443.93
2019-02-09T09:29:54.003Z,96430.26
2019-02-09T09:32:28.645Z,96425.20
2019-02-09T09:34:56.714Z,96436.50
2019-02-09T09:37:28.530Z,96435.39
2019-02-09T09:39:58.113Z,96441.34
2019-02-09T09:42:27.819Z,96445.19
2019-02-09T09:44:59.504Z,96450.40
2019-02-09T09:47:29.083Z,96447.73
2019-02-09T09:50:00.873Z,96445.25
2019-02-09T09:52:30.295Z,96445.25
2019-02-09T09:55:00.817Z,96455.85
2019-02-09T09:57:35.987Z,96451.64
2019-02-09T10:00:07.742Z,96459.98
2019-02-09T10:02:38.793Z,96463.40
2019-02-09T10:05:10.976Z,96473.52
2019-02-09T10:07:40.903Z,96476.06
2019-02-09T10:10:13.992Z,96483.80
2019-02-09T10:12:44.059Z,96475.83
2019-02-09T10:15:15.548Z,96474.55
2019-02-09T10:17:45.309Z,96474.55
2019-02-09T10:20:16.887Z,96474.55
2019-02-09T10:22:49.140Z,96466.17
2019-02-09T10:25:18.653Z,96466.17
2019-02-09T10:27:48.043Z,96453.42
2019-02-09T10:30:19.410Z,96482.77
2019-02-09T10:32:52.336Z,96480.20
2019-02-09T10:35:22.522Z,96467.20
2019-02-09T10:37:53.559Z,96460.41
2019-02-09T10:40:29.576Z,96460.41
2019-02-09T10:43:00.334Z,96478.36
2019-02-09T10:45:30.528Z,96483.55
2019-02-09T10:48:02.471Z,96498.03
2019-02-09T10:50:36.810Z,96498.03
2019-02-09T10:53:06.721Z,96492.88
2019-02-09T10:55:36.498Z,96494.79
2019-02-09T10:58:06.649Z,96476.26
2019-02-09T11:00:47.669Z,96476.26
2019-02-09T11:03:19.281Z,96486.44
2019-02-09T11:05:48.926Z,96488.48
2019-02-09T11:08:18.296Z,96473.38
2019-02-09T11:10:47.913Z,96473.38
2019-02-09T11:13:18.207Z,96491.28
2019-02-09T11:15:47.659Z,96491.28
2019-02-09T11:18:17.546Z,96461.48
2019-02-09T11:20:47.062Z,96478.30
2019-02-09T11:23:18.992Z,96486.35
2019-02-09T11:25:51.987Z,96468.12
2019-02-09T11:28:21.551Z,96480.17
2019-02-09T11:30:51.131Z,96492.17
2019-02-09T11:33:21.963Z,96492.17
2019-02-09T11:35:51.796Z,96487.77
2019-02-09T11:38:21.854Z,96497.86
2019-02-09T11:40:52.140Z,96497.86
2019-02-09T11:43:22.133Z,96511.36
2019-02-09T11:45:51.888Z,96498.42
2019-02-09T11:48:22.011Z,96508.34
2019-02-09T11:50:53.850Z,96500.82
2019-02-09T11:53:24.420Z,96500.82
2019-02-09T11:55:54.113Z,96506.59
2019-02-09T11:58:25.926Z,96506.59
2019-02-09T12:00:55.934Z,96485.98
2019-02-09T12:03:25.963Z,96487.88
2019-02-09T12:05:55.750Z,96496.36
2019-02-09T12:08:26.076Z,96503.22
2019-02-09T12:10:56.057Z,96503.22
2019-02-09T12:13:25.605Z,96505.77
2019-02-09T12:15:58.589Z,96483.34
2019-02-09T12:18:30.617Z,96483.34
2019-02-09T12:21:00.412Z,96491.45
2019-02-09T12:23:30.227Z,96491.45
2019-02-09T12:26:01.126Z,96480.32
2019-02-09T12:28:31.506Z,96480.32
2019-02-09T12:31:01.430Z,96494.04
2019-02-09T12:33:37.342Z,96503.19
2019-02-09T12:36:12.092Z,96502.91
2019-02-09T12:38:41.458Z,96494.88
2019-02-09T12:41:11.099Z,96497.88
2019-02-09T12:43:40.739Z,96457.25
2019-02-09T12:46:12.185Z,96494.08
2019-02-09T12:48:41.672Z,96494.08
2019-02-09T12:51:11.119Z,96505.06
2019-02-09T12:53:40.470Z,96505.06
2019-02-09T12:56:12.872Z,96489.20
2019-02-09T12:58:42.254Z,96478.42
2019-02-09T13:01:11.891Z,96510.80
2019-02-09T13:03:41.655Z,96505.01
2019-02-09T13:06:14.526Z,96505.01
2019-02-09T13:08:44.246Z,96508.03
2019-02-09T13:11:14.181Z,96507.22
2019-02-09T13:13:44.339Z,96524.39
2019-02-09T13:16:13.870Z,96528.95
2019-02-09T13:18:46.240Z,96517.31
2019-02-09T13:21:20.316Z,96512.00
2019-02-09T13:23:55.162Z,96512.00
2019-02-09T13:26:28.162Z,96515.63
2019-02-09T13:28:58.103Z,96515.63
2019-02-09T13:31:28.585Z,96516.09
2019-02-09T13:33:58.390Z,96514.98
2019-02-09T13:36:30.648Z,96515.88
2019-02-09T13:39:01.030Z,96517.35
2019-02-09T13:41:35.861Z,96517.35
2019-02-09T13:44:06.148Z,96532.14
2019-02-09T13:46:36.340Z,96532.14
2019-02-09T13:49:07.259Z,96515.69
2019-02-09T13:51:39.187Z,96527.03
2019-02-09T13:54:10.175Z,96509.34
2019-02-09T13:56:40.015Z,96530.59
2019-02-09T13:59:10.209Z,96510.80
2019-02-09T14:01:44.950Z,96514.82
2019-02-09T14:04:15.242Z,96518.92
2019-02-09T14:06:45.137Z,96522.59
2019-02-09T14:09:20.013Z,96509.20
2019-02-09T14:11:50.271Z,96519.18
2019-02-09T14:14:20.532Z,96508.47
2019-02-09T14:16:50.606Z,96508.47
2019-02-09T14:19:26.020Z,96510.01
2019-02-09T14:21:55.746Z,96527.12
2019-02-09T14:24:25.513Z,96533.22
2019-02-09T14:26:55.284Z,96524.33
2019-02-09T14:29:26.429Z,96524.33
2019-02-09T14:32:02.386Z,96527.42
2019-02-09T14:34:39.794Z,96540.34
2019-02-09T14:37:10.104Z,96540.34
2019-02-09T14:39:39.789Z,96530.63
2019-02-09T14:42:14.322Z,96530.63
2019-02-09T14:44:44.103Z,96515.77
2019-02-09T14:47:14.413Z,96530.98
2019-02-09T14:49:43.942Z,96531.42
2019-02-09T14:52:14.066Z,96520.33
2019-02-09T14:54:47.993Z,96520.33
2019-02-09T14:57:24.200Z,96527.07
2019-02-09T14:59:57.396Z,96553.12
2019-02-09T15:02:29.612Z,96560.17
2019-02-09T15:05:02.953Z,96560.17
2019-02-09T15:07:37.187Z,96576.06
2019-02-09T15:10:12.074Z,96606.92
2019-02-09T15:12:41.650Z,96607.94
2019-02-09T15:15:24.007Z,96613.06
2019-02-09T15:17:53.575Z,96598.09
2019-02-09T15:20:26.141Z,96598.09
2019-02-09T15:22:55.688Z,96608.30
2019-02-09T15:25:25.942Z,96611.40
2019-02-09T15:27:55.682Z,96610.60
2019-02-09T15:30:26.119Z,96610.60
2019-02-09T15:32:55.652Z,96614.77
2019-02-09T15:35:25.616Z,96617.67
2019-02-09T15:37:57.964Z,96621.55
2019-02-09T15:40:29.441Z,96616.41
2019-02-09T15:43:00.487Z,96632.37
2019-02-09T15:45:30.624Z,96632.37
2019-02-09T15:48:00.168Z,96620.34
2019-02-09T15:50:31.978Z,96621.62
2019-02-09T15:53:06.728Z,96625.72
2019-02-09T15:55:37.138Z,96632.97
2019-02-09T15:58:06.872Z,96614.36
2019-02-09T16:00:36.488Z,96612.97
2019-02-09T16:03:06.280Z,96628.25
2019-02-09T16:05:36.831Z,96628.25
2019-02-09T16:08:06.396Z,96633.34
2019-02-09T16:10:39.550Z,96639.64
2019-02-09T16:13:12.980Z,96639.64
2019-02-09T16:15:42.991Z,96640.59
2019-02-09T16:18:19.193Z,96640.59
2019-02-09T16:20:55.649Z,96650.88
2019-02-09T16:23:27.691Z,96650.88
2019-02-09T16:25:57.290Z,96654.20
2019-02-09T16:28:29.305Z,96654.20
2019-02-09T16:31:02.053Z,96659.17
2019-02-09T16:33:33.319Z,96664.86
2019-02-09T16:36:03.249Z,96655.05
2019-02-09T16:38:36.118Z,96666.85
2019-02-09T16:41:09.322Z,96666.85
2019-02-09T16:43:42.105Z,96674.30
2019-02-09T16:46:11.841Z,96674.31
2019-02-09T16:48:41.805Z,96674.31
2019-02-09T16:51:11.772Z,96681.45
2019-02-09T16:53:49.925Z,96675.64
2019-02-09T16:56:22.003Z,96680.42
2019-02-09T16:58:51.681Z,96671.95
2019-02-09T17:01:21.531Z,96672.11
2019-02-09T17:03:52.272Z,96672.11
2019-02-09T17:06:26.819Z,96675.62
2019-02-09T17:08:57.685Z,96685.48
2019-02-09T17:11:30.871Z,96692.21
2019-02-09T17:14:03.335Z,96691.67
2019-02-09T17:16:33.990Z,96691.67
2019-02-09T17:19:07.071Z,96697.25
2019-02-09T17:21:37.188Z,96699.59
2019-02-09T17:24:06.653Z,96709.29
2019-02-09T17:26:36.457Z,96709.29
2019-02-09T17:29:08.704Z,96709.03
2019-02-09T17:31:38.409Z,96709.03
2019-02-09T17:34:11.774Z,96707.81
2019-02-09T17:36:49.749Z,96704.79
2019-02-09T17:39:23.679Z,96704.79
2019-02-09T17:41:54.181Z,96704.50
2019-02-09T17:44:23.489Z,96707.03
2019-02-09T17:46:53.319Z,96707.03
2019-02-09T17:49:22.819Z,96701.09
2019-02-09T17:51:52.309Z,96709.39
2019-02-09T17:54:24.607Z,96720.23
2019-02-09T17:56:55.757Z,96717.75
2019-02-09T17:59:30.397Z,96735.55
2019-02-09T18:02:02.039Z,96735.55
2019-02-09T18:04:32.181Z,96747.59
2019-02-09T18:07:04.489Z,96746.81
2019-02-09T18:09:37.373Z,96746.81
2019-02-09T18:12:07.962Z,96745.41
2019-02-09T18:14:37.650Z,96745.41
2019-02-09T18:17:08.233Z,96741.55
2019-02-09T18:19:40.774Z,96749.84
2019-02-09T18:22:10.724Z,96753.06
2019-02-09T18:24:40.222Z,96755.34
2019-02-09T18:27:09.767Z,96740.88
2019-02-09T18:29:39.541Z,96740.88
2019-02-09T18:32:09.623Z,96778.06
2019-02-09T18:34:39.099Z,96774.30
2019-02-09T18:37:08.712Z,96774.30
2019-02-09T18:39:41.143Z,96768.61
2019-02-09T18:42:15.466Z,96768.61
2019-02-09T18:44:49.027Z,96770.23
2019-02-09T18:47:19.010Z,96770.23
2019-02-09T18:49:54.603Z,96768.90
2019-02-09T18:52:24.296Z,96775.93
2019-02-09T18:54:54.175Z,96768.84
2019-02-09T18:57:23.680Z,96771.56
2019-02-09T18:59:55.401Z,96777.98
2019-02-09T19:02:25.037Z,96777.98
2019-02-09T19:04:54.930Z,96768.78
2019-02-09T19:07:27.135Z,96763.10
2019-02-09T19:10:01.113Z,96760.86
2019-02-09T19:12:30.682Z,96759.05
2019-02-09T19:15:00.195Z,96770.60
2019-02-09T19:17:30.100Z,96770.60
2019-02-09T19:19:59.606Z,96759.72
2019-02-09T19:22:29.087Z,96759.72
2019-02-09T19:24:58.525Z,96766.02
2019-02-09T19:27:28.674Z,96766.02
2019-02-09T19:29:58.763Z,96758.11
2019-02-09T19:32:28.437Z,96765.75
2019-02-09T19:34:58.385Z,96765.75
2019-02-09T19:37:28.122Z,96765.69
2019-02-09T19:40:15.230Z,96766.59
2019-02-09T19:42:47.168Z,96766.59
2019-02-09T19:45:24.655Z,96769.37
2019-02-09T19:47:54.269Z,96771.92
2019-02-09T19:50:27.145Z,96769.45
2019-02-09T19:52:59.825Z,96765.82
2019-02-09T19:55:30.791Z,96765.82
2019-02-09T19:58:00.649Z,96773.37
2019-02-09T20:00:33.191Z,96768.42
2019-02-09T20:03:03.087Z,96768.06
2019-02-09T20:05:33.188Z,96771.94
2019-02-09T20:08:07.079Z,96775.50
2019-02-09T20:10:41.732Z,96780.99
2019-02-09T20:13:11.703Z,96788.62
2019-02-09T20:15:41.590Z,96788.62
2019-02-09T20:18:14.188Z,96776.64
2019-02-09T20:20:47.370Z,96767.08
2019-02-09T20:23:16.659Z,96768.94
2019-02-09T20:25:50.125Z,96763.02
2019-02-09T20:28:19.790Z,96763.02
2019-02-09T20:30:49.208Z,96761.23
2019-02-09T20:33:18.714Z,96755.19
2019-02-09T20:35:48.161Z,96751.75
2019-02-09T20:38:19.979Z,96751.75
2019-02-09T20:40:54.459Z,96747.69
2019-02-09T20:43:24.796Z,96747.48
2019-02-09T20:45:54.423Z,96758.46
2019-02-09T20:48:27.331Z,96762.33
2019-02-09T20:50:56.727Z,96754.38
2019-02-09T20:53:27.213Z,96755.19
2019-02-09T20:55:56.803Z,96763.94
2019-02-09T20:58:27.334Z,96762.73
2019-02-09T21:00:57.021Z,96762.73
2019-02-09T21:03:28.878Z,96765.47
2019-02-09T21:05:58.223Z,96760.16
2019-02-09T21:08:33.758Z,96763.45
2019-02-09T21:11:03.431Z,96759.95
2019-02-09T21:13:49.000Z,96759.95
2019-02-09T21:16:18.670Z,96756.56
2019-02-09T21:18:50.535Z,96753.86
2019-02-09T21:21:20.684Z,96753.25
2019-02-09T21:23:52.641Z,96755.31
2019-02-09T21:26:22.016Z,96757.29
2019-02-09T21:28:52.172Z,96745.64
2019-02-09T21:31:22.778Z,96745.64
2019-02-09T21:33:58.265Z,96748.30
2019-02-09T21:36:27.918Z,96748.30
2019-02-09T21:39:00.602Z,96750.95
2019-02-09T21:41:30.741Z,96746.16
2019-02-09T21:44:07.154Z,96753.94
2019-02-09T21:46:40.183Z,96747.69
2019-02-09T21:49:12.270Z,96755.84
2019-02-09T21:51:42.014Z,96754.26
2019-02-09T21:54:12.711Z,96754.26
2019-02-09T21:56:45.133Z,96751.48
2019-02-09T21:59:17.954Z,96751.03
2019-02-09T22:01:47.817Z,96751.03
2019-02-09T22:04:17.340Z,96746.80
2019-02-09T22:06:47.752Z,96743.02
2019-02-09T22:09:17.329Z,96746.03
2019-02-09T22:11:47.119Z,96737.65
2019-02-09T22:14:17.194Z,96733.86
2019-02-09T22:16:48.409Z,96730.15
2019-02-09T22:19:17.949Z,96730.15
2019-02-09T22:21:49.819Z,96728.98
2019-02-09T22:24:19.820Z,96731.48
2019-02-09T22:26:49.420Z,96729.31
2019-02-09T22:29:21.291Z,96729.31
2019-02-09T22:31:52.022Z,96727.89
2019-02-09T22:34:21.635Z,96725.95
2019-02-09T22:36:51.150Z,96725.95
2019-02-09T22:39:20.736Z,96718.09
2019-02-09T22:41:51.355Z,96713.05
2019-02-09T22:44:21.871Z,96715.07
2019-02-09T22:46:52.561Z,96717.38
2019-02-09T22:49:28.072Z,96713.63
2019-02-09T22:51:57.733Z,96699.88
2019-02-09T22:54:27.258Z,96696.97
2019-02-09T22:56:57.885Z,96696.97
2019-02-09T22:59:28.286Z,96700.11
2019-02-09T23:01:59.101Z,96684.84
2019-02-09T23:05:15.141Z,96685.48
2019-02-09T23:07:51.060Z,96687.18
2019-02-09T23:10:20.822Z,96687.18
2019-02-09T23:12:51.914Z,96683.59
2019-02-09T23:15:21.636Z,96676.30
2019-02-09T23:17:51.755Z,96676.30
2019-02-09T23:20:21.323Z,96668.44
2019-02-09T23:22:51.361Z,96668.55
2019-02-09T23:25:22.704Z,96676.18
2019-02-09T23:27:53.399Z,96663.16
2019-02-09T23:30:23.096Z,96658.89
2019-02-09T23:32:56.320Z,96658.89
2019-02-09T23:35:29.633Z,96648.05
2019-02-09T23:37:59.712Z,96647.52
2019-02-09T23:40:29.628Z,96649.22
2019-02-09T23:43:01.835Z,96649.22
2019-02-09T23:45:32.871Z,96634.95
2019-02-09T23:48:02.344Z,96627.27
2019-02-09T23:50:32.438Z,96627.27
2019-02-09T23:53:02.052Z,96610.21
2019-02-09T23:55:32.175Z,96613.59
2019-02-09T23:58:01.935Z,96614.03
